Time,TemperatureF,DewpointF,PressureIn,WindDirection,WindDirectionDegrees,WindSpeedMPH,WindSpeedGustMPH,Humidity,HourlyPrecipIn,Conditions,Clouds,dailyrainin,SoftwareType,DateUTC
2013-06-21 00:00:00,60.0,57.1,30.24,SW,220,3.0,4.0,90,0.00,,,0.00,Wunderground v.1.15,2013-06-21 04:00:00,
2013-06-21 00:05:00,59.9,57.0,30.24,SSW,209,3.0,6.0,90,0.00,,,0.00,Wunderground v.1.15,2013-06-21 04:05:00,
2013-06-21 00:10:00,59.9,57.0,30.24,SSW,202,3.0,4.0,90,0.00,,,0.00,Wunderground v.1.15,2013-06-21 04:10:00,
2013-06-21 00:15:00,59.8,56.9,30.24,SSW,201,3.0,4.0,90,0.00,,,0.00,Wunderground v.1.15,2013-06-21 04:15:00,
2013-06-21 00:20:00,59.8,56.9,30.24,SW,217,3.0,4.0,90,0.00,,,0.00,Wunderground v.1.15,2013-06-21 04:20:00,
2013-06-21 00:25:00,59.8,56.9,30.24,SSW,206,2.0,4.0,90,0.00,,,0.00,Wunderground v.1.15,2013-06-21 04:25:00,
2013-06-21 00:30:00,59.8,56.9,30.24,SSW,208,2.0,4.0,90,0.00,,,0.00,Wunderground v.1.15,2013-06-21 04:30:00,
2013-06-21 00:35:00,59.7,56.8,30.24,SSW,200,1.0,4.0,90,0.00,,,0.00,Wunderground v.1.15,2013-06-21 04:35:00,
2013-06-21 00:40:00,59.7,56.8,30.24,SSW,200,1.0,4.0,90,0.00,,,0.00,Wunderground v.1.15,2013-06-21 04:40:00,
2013-06-21 00:50:00,59.4,56.8,30.24,SSW,200,0.0,4.0,91,0.00,,,0.00,Wunderground v.1.15,2013-06-21 04:50:00,
2013-06-21 00:55:00,59.3,56.7,30.23,SSW,200,0.0,4.0,91,0.00,,,0.00,Wunderground v.1.15,2013-06-21 04:55:00,
2013-06-21 01:00:00,59.2,56.9,30.24,SSW,196,1.0,4.0,92,0.00,,,0.00,Wunderground v.1.15,2013-06-21 05:00:00,
2013-06-21 01:05:00,59.1,56.5,30.23,SSW,194,1.0,4.0,91,0.00,,,0.00,Wunderground v.1.15,2013-06-21 05:05:00,
2013-06-21 01:10:00,58.9,56.6,30.24,SSW,195,1.0,4.0,92,0.00,,,0.00,Wunderground v.1.15,2013-06-21 05:10:00,
2013-06-21 01:15:00,58.7,56.4,30.24,SSW,195,1.0,4.0,92,0.00,,,0.00,Wunderground v.1.15,2013-06-21 05:15:00,
2013-06-21 01:20:00,58.3,56.0,30.23,SSW,195,0.0,4.0,92,0.00,,,0.00,Wunderground v.1.15,2013-06-21 05:20:00,
2013-06-21 01:25:00,58.0,55.7,30.24,SSW,195,0.0,4.0,92,0.00,,,0.00,Wunderground v.1.15,2013-06-21 05:25:00,
2013-06-21 01:30:00,57.8,55.8,30.24,SSW,195,0.0,4.0,93,0.00,,,0.00,Wunderground v.1.15,2013-06-21 05:30:00,
2013-06-21 01:35:00,57.7,55.7,30.24,SSW,195,0.0,4.0,93,0.00,,,0.00,Wunderground v.1.15,2013-06-21 05:35:00,
2013-06-21 01:45:00,57.5,55.8,30.23,SSW,195,0.0,4.0,94,0.00,,,0.00,Wunderground v.1.15,2013-06-21 05:45:00,
2013-06-21 01:50:00,57.4,55.7,30.23,SSW,195,0.0,4.0,94,0.00,,,0.00,Wunderground v.1.15,2013-06-21 05:50:00,
2013-06-21 01:55:00,57.2,55.5,30.23,SSW,195,0.0,4.0,94,0.00,,,0.00,Wunderground v.1.15,2013-06-21 05:55:00,
2013-06-21 02:00:00,57.1,55.4,30.23,SSW,195,0.0,4.0,94,0.00,,,0.00,Wunderground v.1.15,2013-06-21 06:00:00,
2013-06-21 02:05:00,56.7,55.0,30.23,SSW,195,0.0,4.0,94,0.00,,,0.00,Wunderground v.1.15,2013-06-21 06:05:00,
2013-06-21 02:10:00,56.6,54.9,30.23,SSW,195,0.0,4.0,94,0.00,,,0.00,Wunderground v.1.15,2013-06-21 06:10:00,
2013-06-21 02:15:00,56.6,55.2,30.23,SSW,195,0.0,4.0,95,0.00,,,0.00,Wunderground v.1.15,2013-06-21 06:15:00,
2013-06-21 02:25:00,56.4,55.0,30.23,SSW,195,0.0,4.0,95,0.00,,,0.00,Wunderground v.1.15,2013-06-21 06:25:00,
2013-06-21 02:30:00,56.3,54.9,30.23,SSW,195,0.0,4.0,95,0.00,,,0.00,Wunderground v.1.15,2013-06-21 06:30:00,
2013-06-21 02:35:00,56.3,54.9,30.22,SSW,195,0.0,4.0,95,0.00,,,0.00,Wunderground v.1.15,2013-06-21 06:35:00,
2013-06-21 02:40:00,56.2,54.8,30.22,SSW,195,0.0,4.0,95,0.00,,,0.00,Wunderground v.1.15,2013-06-21 06:40:00,
2013-06-21 02:45:00,56.0,54.6,30.22,SSW,195,0.0,4.0,95,0.00,,,0.00,Wunderground v.1.15,2013-06-21 06:45:00,
2013-06-21 02:50:00,55.9,54.5,30.22,SSW,195,0.0,4.0,95,0.00,,,0.00,Wunderground v.1.15,2013-06-21 06:50:00,
2013-06-21 03:00:00,55.7,54.3,30.22,SSW,195,0.0,4.0,95,0.00,,,0.00,Wunderground v.1.15,2013-06-21 07:00:00,
2013-06-21 03:05:00,55.6,54.5,30.22,SSW,195,0.0,4.0,96,0.00,,,0.00,Wunderground v.1.15,2013-06-21 07:05:00,
2013-06-21 03:10:00,55.5,54.4,30.22,SSW,195,0.0,4.0,96,0.00,,,0.00,Wunderground v.1.15,2013-06-21 07:10:00,
2013-06-21 03:15:00,55.3,54.2,30.22,SSW,195,0.0,4.0,96,0.00,,,0.00,Wunderground v.1.15,2013-06-21 07:15:00,
2013-06-21 03:20:00,55.2,54.1,30.22,SSW,195,0.0,4.0,96,0.00,,,0.00,Wunderground v.1.15,2013-06-21 07:20:00,
2013-06-21 03:30:00,55.1,54.0,30.22,SSW,195,0.0,4.0,96,0.00,,,0.00,Wunderground v.1.15,2013-06-21 07:30:00,
2013-06-21 03:35:00,55.1,54.0,30.22,SSW,195,0.0,4.0,96,0.00,,,0.00,Wunderground v.1.15,2013-06-21 07:35:00,
2013-06-21 03:40:00,55.0,53.9,30.22,SSW,195,0.0,4.0,96,0.00,,,0.00,Wunderground v.1.15,2013-06-21 07:40:00,
2013-06-21 03:45:00,54.9,53.8,30.22,SSW,195,0.0,4.0,96,0.00,,,0.00,Wunderground v.1.15,2013-06-21 07:45:00,
2013-06-21 03:50:00,54.9,53.8,30.22,SSW,195,0.0,4.0,96,0.00,,,0.00,Wunderground v.1.15,2013-06-21 07:50:00,
2013-06-21 03:55:00,54.9,53.8,30.22,SSW,195,0.0,4.0,96,0.00,,,0.00,Wunderground v.1.15,2013-06-21 07:55:00,
2013-06-21 04:05:00,54.8,54.0,30.22,SSW,195,0.0,4.0,97,0.00,,,0.00,Wunderground v.1.15,2013-06-21 08:05:00,
2013-06-21 04:10:00,54.7,53.6,30.22,SSW,195,0.0,4.0,96,0.00,,,0.00,Wunderground v.1.15,2013-06-21 08:10:00,
2013-06-21 04:15:00,54.6,53.5,30.22,SSW,195,0.0,4.0,96,0.00,,,0.00,Wunderground v.1.15,2013-06-21 08:15:00,
2013-06-21 04:20:00,54.6,53.5,30.22,SSW,195,0.0,4.0,96,0.00,,,0.00,Wunderground v.1.15,2013-06-21 08:20:00,
2013-06-21 04:25:00,54.5,53.7,30.22,SSW,195,0.0,4.0,97,0.00,,,0.00,Wunderground v.1.15,2013-06-21 08:25:00,
2013-06-21 04:35:00,54.5,53.7,30.22,SSW,195,0.0,4.0,97,0.00,,,0.00,Wunderground v.1.15,2013-06-21 08:35:00,
2013-06-21 04:40:00,54.7,53.9,30.22,SSW,195,0.0,4.0,97,0.00,,,0.00,Wunderground v.1.15,2013-06-21 08:40:00,
2013-06-21 04:45:00,54.3,53.5,30.22,SSW,195,0.0,4.0,97,0.00,,,0.00,Wunderground v.1.15,2013-06-21 08:45:00,
2013-06-21 04:50:00,54.4,53.6,30.23,SSW,195,0.0,4.0,97,0.00,,,0.00,Wunderground v.1.15,2013-06-21 08:50:00,
2013-06-21 04:55:00,54.5,53.7,30.23,SSW,195,0.0,4.0,97,0.00,,,0.00,Wunderground v.1.15,2013-06-21 08:55:00,
2013-06-21 05:00:00,54.6,53.8,30.23,SSW,195,0.0,4.0,97,0.00,,,0.00,Wunderground v.1.15,2013-06-21 09:00:00,
2013-06-21 05:10:00,54.5,53.7,30.22,SSW,195,0.0,4.0,97,0.00,,,0.00,Wunderground v.1.15,2013-06-21 09:10:00,
2013-06-21 05:15:00,54.5,53.7,30.23,SSW,195,0.0,4.0,97,0.00,,,0.00,Wunderground v.1.15,2013-06-21 09:15:00,
2013-06-21 05:20:00,54.6,53.8,30.23,SSW,195,0.0,4.0,97,0.00,,,0.00,Wunderground v.1.15,2013-06-21 09:20:00,
2013-06-21 05:25:00,54.7,53.9,30.23,SSW,195,0.0,4.0,97,0.00,,,0.00,Wunderground v.1.15,2013-06-21 09:25:00,
2013-06-21 05:30:00,54.6,53.8,30.23,SSW,195,0.0,4.0,97,0.00,,,0.00,Wunderground v.1.15,2013-06-21 09:30:00,
2013-06-21 05:40:00,54.4,53.6,30.23,SSW,195,0.0,4.0,97,0.00,,,0.00,Wunderground v.1.15,2013-06-21 09:40:00,
2013-06-21 05:45:00,54.3,53.5,30.23,SSW,195,0.0,4.0,97,0.00,,,0.00,Wunderground v.1.15,2013-06-21 09:45:00,
2013-06-21 05:50:00,54.5,53.7,30.23,SSW,195,0.0,4.0,97,0.00,,,0.00,Wunderground v.1.15,2013-06-21 09:50:00,
2013-06-21 05:55:00,54.7,53.9,30.23,SSW,195,0.0,4.0,97,0.00,,,0.00,Wunderground v.1.15,2013-06-21 09:55:00,
2013-06-21 06:00:00,54.9,54.1,30.23,SSW,195,0.0,4.0,97,0.00,,,0.00,Wunderground v.1.15,2013-06-21 10:00:00,
2013-06-21 06:05:00,55.1,54.3,30.23,SSW,195,0.0,4.0,97,0.00,,,0.00,Wunderground v.1.15,2013-06-21 10:05:00,
2013-06-21 06:15:00,55.5,54.9,30.23,SSW,195,0.0,4.0,98,0.00,,,0.00,Wunderground v.1.15,2013-06-21 10:15:00,
2013-06-21 06:20:00,55.6,54.8,30.23,SSW,195,0.0,4.0,97,0.00,,,0.00,Wunderground v.1.15,2013-06-21 10:20:00,
2013-06-21 06:25:00,55.8,55.2,30.24,SSW,195,0.0,4.0,98,0.00,,,0.00,Wunderground v.1.15,2013-06-21 10:25:00,
2013-06-21 06:30:00,56.0,55.4,30.24,SSW,195,0.0,4.0,98,0.00,,,0.00,Wunderground v.1.15,2013-06-21 10:30:00,
2013-06-21 06:35:00,56.4,55.8,30.23,SSW,195,0.0,4.0,98,0.00,,,0.00,Wunderground v.1.15,2013-06-21 10:35:00,
2013-06-21 06:45:00,57.1,56.5,30.23,SSW,195,0.0,4.0,98,0.00,,,0.00,Wunderground v.1.15,2013-06-21 10:45:00,
2013-06-21 06:50:00,57.4,56.8,30.23,SSW,195,0.0,4.0,98,0.00,,,0.00,Wunderground v.1.15,2013-06-21 10:50:00,
2013-06-21 06:55:00,57.7,57.1,30.23,SSW,195,0.0,4.0,98,0.00,,,0.00,Wunderground v.1.15,2013-06-21 10:55:00,
2013-06-21 07:00:00,58.0,57.4,30.23,SSW,195,0.0,4.0,98,0.00,,,0.00,Wunderground v.1.15,2013-06-21 11:00:00,
2013-06-21 07:05:00,58.1,57.5,30.24,SW,221,1.0,4.0,98,0.00,,,0.00,Wunderground v.1.15,2013-06-21 11:05:00,
2013-06-21 07:10:00,58.3,57.7,30.24,SW,221,1.0,4.0,98,0.00,,,0.00,Wunderground v.1.15,2013-06-21 11:10:00,
2013-06-21 07:20:00,58.7,58.1,30.24,SW,221,1.0,1.0,98,0.00,,,0.00,Wunderground v.1.15,2013-06-21 11:20:00,
2013-06-21 07:25:00,58.9,58.1,30.24,SW,222,1.0,4.0,97,0.00,,,0.00,Wunderground v.1.15,2013-06-21 11:25:00,
2013-06-21 07:30:00,59.1,58.2,30.24,SW,222,1.0,1.0,97,0.00,,,0.00,Wunderground v.1.15,2013-06-21 11:30:00,
2013-06-21 07:35:00,59.3,58.4,30.24,SW,222,1.0,4.0,97,0.00,,,0.00,Wunderground v.1.15,2013-06-21 11:35:00,
2013-06-21 07:40:00,59.5,58.6,30.24,NNW,346,1.0,4.0,97,0.00,,,0.00,Wunderground v.1.15,2013-06-21 11:40:00,
2013-06-21 07:50:00,59.9,59.0,30.23,NNW,342,0.0,4.0,97,0.00,,,0.00,Wunderground v.1.15,2013-06-21 11:50:00,
2013-06-21 07:55:00,59.9,58.8,30.23,WNW,292,0.0,4.0,96,0.00,,,0.00,Wunderground v.1.15,2013-06-21 11:55:00,
2013-06-21 08:00:00,60.2,59.1,30.23,WNW,292,1.0,1.0,96,0.00,,,0.00,Wunderground v.1.15,2013-06-21 12:00:00,
2013-06-21 08:05:00,60.7,59.6,30.23,WNW,292,1.0,4.0,96,0.00,,,0.00,Wunderground v.1.15,2013-06-21 12:05:00,
2013-06-21 08:10:00,60.9,59.5,30.24,WNW,288,0.0,4.0,95,0.00,,,0.00,Wunderground v.1.15,2013-06-21 12:10:00,
2013-06-21 08:15:00,61.2,59.8,30.24,SW,222,1.0,4.0,95,0.00,,,0.00,Wunderground v.1.15,2013-06-21 12:15:00,
2013-06-21 08:25:00,61.7,60.0,30.25,West,265,2.0,4.0,94,0.00,,,0.00,Wunderground v.1.15,2013-06-21 12:25:00,
2013-06-21 08:30:00,61.9,59.5,30.25,WNW,294,3.0,4.0,92,0.00,,,0.00,Wunderground v.1.15,2013-06-21 12:30:00,
2013-06-21 08:35:00,61.7,59.4,30.25,West,267,4.0,5.0,92,0.00,,,0.00,Wunderground v.1.15,2013-06-21 12:35:00,
2013-06-21 08:40:00,61.7,59.4,30.25,NW,319,4.0,4.0,92,0.00,,,0.00,Wunderground v.1.15,2013-06-21 12:40:00,
2013-06-21 08:50:00,62.1,59.4,30.24,WNW,282,1.0,4.0,91,0.00,,,0.00,Wunderground v.1.15,2013-06-21 12:50:00,
2013-06-21 08:55:00,62.2,59.5,30.24,WNW,286,1.0,4.0,91,0.00,,,0.00,Wunderground v.1.15,2013-06-21 12:55:00,
2013-06-21 09:00:00,62.6,59.6,30.24,WNW,286,0.0,4.0,90,0.00,,,0.00,Wunderground v.1.15,2013-06-21 13:00:00,
2013-06-21 09:10:00,63.5,60.2,30.23,WNW,286,0.0,4.0,89,0.00,,,0.00,Wunderground v.1.15,2013-06-21 13:10:00,
2013-06-21 09:15:00,64.0,60.1,30.23,West,277,0.0,4.0,87,0.00,,,0.00,Wunderground v.1.15,2013-06-21 13:15:00,
2013-06-21 09:20:00,64.4,60.4,30.23,West,277,0.0,4.0,87,0.00,,,0.00,Wunderground v.1.15,2013-06-21 13:20:00,
2013-06-21 09:30:00,64.7,59.4,30.23,WNW,298,2.0,4.0,83,0.00,,,0.00,Wunderground v.1.15,2013-06-21 13:30:00,
2013-06-21 09:35:00,64.7,59.4,30.24,West,279,2.0,4.0,83,0.00,,,0.00,Wunderground v.1.15,2013-06-21 13:35:00,
2013-06-21 09:40:00,64.6,58.6,30.24,WNW,298,3.0,4.0,81,0.00,,,0.00,Wunderground v.1.15,2013-06-21 13:40:00,
2013-06-21 09:45:00,64.7,59.1,30.24,West,263,3.0,4.0,82,0.00,,,0.00,Wunderground v.1.15,2013-06-21 13:45:00,
2013-06-21 09:50:00,64.8,58.5,30.24,WNW,299,3.0,3.0,80,0.00,,,0.00,Wunderground v.1.15,2013-06-21 13:50:00,
2013-06-21 09:55:00,64.8,58.1,30.24,NW,306,2.0,4.0,79,0.00,,,0.00,Wunderground v.1.15,2013-06-21 13:55:00,
2013-06-21 10:15:00,65.2,58.5,30.25,WNW,288,1.0,4.0,79,0.00,,,0.00,Wunderground v.1.15,2013-06-21 14:15:00,
2013-06-21 10:20:00,65.6,58.9,30.25,WNW,288,0.0,4.0,79,0.00,,,0.00,Wunderground v.1.15,2013-06-21 14:20:00,
2013-06-21 10:25:00,66.0,58.9,30.25,West,261,1.0,4.0,78,0.00,,,0.00,Wunderground v.1.15,2013-06-21 14:25:00,
2013-06-21 10:30:00,66.5,58.7,30.25,West,264,1.0,4.0,76,0.00,,,0.00,Wunderground v.1.15,2013-06-21 14:30:00,
2013-06-21 10:40:00,67.9,58.9,30.25,WNW,286,1.0,4.0,73,0.00,,,0.00,Wunderground v.1.15,2013-06-21 14:40:00,
2013-06-21 10:45:00,68.7,59.3,30.25,ENE,57,1.0,4.0,72,0.00,,,0.00,Wunderground v.1.15,2013-06-21 14:45:00,
2013-06-21 10:50:00,68.9,58.3,30.25,ENE,57,1.0,4.0,69,0.00,,,0.00,Wunderground v.1.15,2013-06-21 14:50:00,
2013-06-21 10:55:00,69.0,58.4,30.25,WNW,302,1.0,4.0,69,0.00,,,0.00,Wunderground v.1.15,2013-06-21 14:55:00,
2013-06-21 11:00:00,69.2,58.2,30.25,WNW,302,2.0,2.0,68,0.00,,,0.00,Wunderground v.1.15,2013-06-21 15:00:00,
2013-06-21 11:05:00,68.8,56.6,30.25,NW,312,3.0,3.0,65,0.00,,,0.00,Wunderground v.1.15,2013-06-21 15:05:00,
2013-06-21 11:15:00,68.9,56.2,30.25,WNW,299,3.0,4.0,64,0.00,,,0.00,Wunderground v.1.15,2013-06-21 15:15:00,
2013-06-21 11:20:00,69.5,56.8,30.25,NW,323,1.0,1.0,64,0.00,,,0.00,Wunderground v.1.15,2013-06-21 15:20:00,
2013-06-21 11:25:00,70.3,57.5,30.25,North,5,0.0,4.0,64,0.00,,,0.00,Wunderground v.1.15,2013-06-21 15:25:00,
2013-06-21 11:30:00,70.4,57.2,30.25,NNE,28,1.0,1.0,63,0.00,,,0.00,Wunderground v.1.15,2013-06-21 15:30:00,
2013-06-21 11:35:00,70.3,57.5,30.25,NNE,29,1.0,4.0,64,0.00,,,0.00,Wunderground v.1.15,2013-06-21 15:35:00,
2013-06-21 11:40:00,70.8,58.9,30.25,NNE,29,1.0,4.0,66,0.00,,,0.00,Wunderground v.1.15,2013-06-21 15:40:00,
2013-06-21 11:50:00,72.9,58.7,30.25,North,5,0.0,4.0,61,0.00,,,0.00,Wunderground v.1.15,2013-06-21 15:50:00,
2013-06-21 11:55:00,73.4,58.2,30.25,North,5,0.0,4.0,59,0.00,,,0.00,Wunderground v.1.15,2013-06-21 15:55:00,
2013-06-21 12:00:00,74.0,57.3,30.24,SSW,207,0.0,4.0,56,0.00,,,0.00,Wunderground v.1.15,2013-06-21 16:00:00,
2013-06-21 12:05:00,73.7,55.5,30.24,WSW,251,1.0,4.0,53,0.00,,,0.00,Wunderground v.1.15,2013-06-21 16:05:00,
2013-06-21 12:10:00,74.1,55.9,30.24,WSW,252,1.0,4.0,53,0.00,,,0.00,Wunderground v.1.15,2013-06-21 16:10:00,
2013-06-21 12:15:00,74.9,57.1,30.24,WSW,245,1.0,4.0,54,0.00,,,0.00,Wunderground v.1.15,2013-06-21 16:15:00,
2013-06-21 12:25:00,75.9,56.5,30.25,NNE,29,1.0,4.0,51,0.00,,,0.00,Wunderground v.1.15,2013-06-21 16:25:00,
2013-06-21 12:30:00,75.6,54.5,30.24,NW,307,1.0,1.0,48,0.00,,,0.00,Wunderground v.1.15,2013-06-21 16:30:00,
2013-06-21 12:35:00,76.4,55.3,30.24,West,269,1.0,5.0,48,0.00,,,0.00,Wunderground v.1.15,2013-06-21 16:35:00,
2013-06-21 12:45:00,77.6,54.6,30.24,NW,306,2.0,4.0,45,0.00,,,0.00,Wunderground v.1.15,2013-06-21 16:45:00,
2013-06-21 12:50:00,76.8,53.8,30.24,North,11,2.0,2.0,45,0.00,,,0.00,Wunderground v.1.15,2013-06-21 16:50:00,
2013-06-21 12:55:00,76.9,55.1,30.24,South,189,2.0,4.0,47,0.00,,,0.00,Wunderground v.1.15,2013-06-21 16:55:00,
2013-06-21 13:05:00,76.8,53.8,30.24,NW,315,3.0,4.0,45,0.00,,,0.00,Wunderground v.1.15,2013-06-21 17:05:00,
2013-06-21 13:10:00,77.0,54.6,30.24,SW,221,3.0,4.0,46,0.00,,,0.00,Wunderground v.1.15,2013-06-21 17:10:00,
2013-06-21 13:20:00,75.6,55.6,30.24,WSW,244,6.0,6.0,50,0.00,,,0.00,Wunderground v.1.15,2013-06-21 17:20:00,
2013-06-21 13:25:00,76.1,57.7,30.23,SW,230,5.0,8.0,53,0.00,,,0.00,Wunderground v.1.15,2013-06-21 17:25:00,
2013-06-21 13:30:00,76.2,54.5,30.23,SW,225,5.0,5.0,47,0.00,,,0.00,Wunderground v.1.15,2013-06-21 17:30:00,
2013-06-21 13:35:00,76.2,53.3,30.23,WSW,254,5.0,5.0,45,0.00,,,0.00,Wunderground v.1.15,2013-06-21 17:35:00,
2013-06-21 13:45:00,76.8,55.0,30.23,West,262,5.0,6.0,47,0.00,,,0.00,Wunderground v.1.15,2013-06-21 17:45:00,
2013-06-21 13:55:00,77.1,54.7,30.23,SW,214,5.0,9.0,46,0.00,,,0.00,Wunderground v.1.15,2013-06-21 17:55:00,
2013-06-21 14:00:00,77.3,55.5,30.23,WNW,282,5.0,5.0,47,0.00,,,0.00,Wunderground v.1.15,2013-06-21 18:00:00,
2013-06-21 14:05:00,77.5,55.7,30.22,WSW,241,5.0,6.0,47,0.00,,,0.00,Wunderground v.1.15,2013-06-21 18:05:00,
2013-06-21 14:10:00,77.3,56.1,30.22,SW,220,5.0,5.0,48,0.00,,,0.00,Wunderground v.1.15,2013-06-21 18:10:00,
2013-06-21 14:20:00,77.5,60.6,30.22,SW,229,4.0,4.0,56,0.00,,,0.00,Wunderground v.1.15,2013-06-21 18:20:00,
2013-06-21 14:25:00,77.3,59.9,30.22,South,186,5.0,6.0,55,0.00,,,0.00,Wunderground v.1.15,2013-06-21 18:25:00,
2013-06-21 14:30:00,77.3,60.4,30.22,SSE,164,5.0,5.0,56,0.00,,,0.00,Wunderground v.1.15,2013-06-21 18:30:00,
2013-06-21 14:35:00,77.3,60.4,30.22,WSW,238,5.0,5.0,56,0.00,,,0.00,Wunderground v.1.15,2013-06-21 18:35:00,
2013-06-21 14:45:00,76.9,58.5,30.22,SSW,196,5.0,11.0,53,0.00,,,0.00,Wunderground v.1.15,2013-06-21 18:45:00,
2013-06-21 14:50:00,76.0,57.6,30.22,SSW,198,6.0,6.0,53,0.00,,,0.00,Wunderground v.1.15,2013-06-21 18:50:00,
2013-06-21 14:55:00,75.7,57.4,30.22,South,169,6.0,6.0,53,0.00,,,0.00,Wunderground v.1.15,2013-06-21 18:55:00,
2013-06-21 15:00:00,76.2,57.8,30.22,South,188,5.0,5.0,53,0.00,,,0.00,Wunderground v.1.15,2013-06-21 19:00:00,
2013-06-21 15:05:00,76.0,57.1,30.22,South,182,4.0,8.0,52,0.00,,,0.00,Wunderground v.1.15,2013-06-21 19:05:00,
2013-06-21 15:15:00,76.1,58.8,30.22,South,183,5.0,7.0,55,0.00,,,0.00,Wunderground v.1.15,2013-06-21 19:15:00,
2013-06-21 15:20:00,76.0,58.7,30.21,South,184,5.0,5.0,55,0.00,,,0.00,Wunderground v.1.15,2013-06-21 19:20:00,
2013-06-21 15:30:00,75.6,57.3,30.22,SSW,208,6.0,9.0,53,0.00,,,0.00,Wunderground v.1.15,2013-06-21 19:30:00,
2013-06-21 15:35:00,75.8,57.4,30.21,SW,214,5.0,9.0,53,0.00,,,0.00,Wunderground v.1.15,2013-06-21 19:35:00,
2013-06-21 15:40:00,75.9,57.0,30.21,SSW,193,5.0,5.0,52,0.00,,,0.00,Wunderground v.1.15,2013-06-21 19:40:00,
2013-06-21 15:50:00,75.9,57.5,30.22,SSE,151,5.0,5.0,53,0.00,,,0.00,Wunderground v.1.15,2013-06-21 19:50:00,
2013-06-21 15:55:00,76.1,56.7,30.22,SSE,168,4.0,5.0,51,0.00,,,0.00,Wunderground v.1.15,2013-06-21 19:55:00,
2013-06-21 16:00:00,76.0,56.0,30.22,South,173,5.0,5.0,50,0.00,,,0.00,Wunderground v.1.15,2013-06-21 20:00:00,
2013-06-21 16:05:00,76.1,55.0,30.21,SW,221,5.0,5.0,48,0.00,,,0.00,Wunderground v.1.15,2013-06-21 20:05:00,
2013-06-21 16:10:00,76.0,54.9,30.21,SSW,202,5.0,6.0,48,0.00,,,0.00,Wunderground v.1.15,2013-06-21 20:10:00,
2013-06-21 16:20:00,75.9,53.0,30.21,South,184,7.0,10.0,45,0.00,,,0.00,Wunderground v.1.15,2013-06-21 20:20:00,
2013-06-21 16:25:00,75.7,52.8,30.21,SSW,209,7.0,10.0,45,0.00,,,0.00,Wunderground v.1.15,2013-06-21 20:25:00,
2013-06-21 16:30:00,75.8,53.5,30.21,SSW,212,7.0,7.0,46,0.00,,,0.00,Wunderground v.1.15,2013-06-21 20:30:00,
2013-06-21 16:40:00,75.5,52.7,30.21,SSW,202,7.0,11.0,45,0.00,,,0.00,Wunderground v.1.15,2013-06-21 20:40:00,
2013-06-21 16:45:00,75.4,51.3,30.21,South,188,7.0,11.0,43,0.00,,,0.00,Wunderground v.1.15,2013-06-21 20:45:00,
2013-06-21 16:55:00,74.9,51.5,30.21,SSW,199,8.0,9.0,44,0.00,,,0.00,Wunderground v.1.15,2013-06-21 20:55:00,
2013-06-21 17:00:00,74.7,50.7,30.21,SSW,196,9.0,9.0,43,0.00,,,0.00,Wunderground v.1.15,2013-06-21 21:00:00,
2013-06-21 17:05:00,74.6,51.2,30.21,SSW,192,8.0,9.0,44,0.00,,,0.00,Wunderground v.1.15,2013-06-21 21:05:00,
2013-06-21 17:20:00,75.0,53.4,30.21,SSW,192,7.0,7.0,47,0.00,,,0.00,Wunderground v.1.15,2013-06-21 21:20:00,
2013-06-21 17:25:00,74.5,51.8,30.20,SSW,209,7.0,9.0,45,0.00,,,0.00,Wunderground v.1.15,2013-06-21 21:25:00,
2013-06-21 17:30:00,74.3,52.8,30.21,SSW,202,7.0,10.0,47,0.00,,,0.00,Wunderground v.1.15,2013-06-21 21:30:00,
2013-06-21 17:35:00,73.9,51.8,30.21,SSW,202,7.0,11.0,46,0.00,,,0.00,Wunderground v.1.15,2013-06-21 21:35:00,
2013-06-21 17:40:00,73.7,51.6,30.21,SSW,203,8.0,8.0,46,0.00,,,0.00,Wunderground v.1.15,2013-06-21 21:40:00,
2013-06-21 17:45:00,73.7,52.8,30.21,SSW,200,7.0,8.0,48,0.00,,,0.00,Wunderground v.1.15,2013-06-21 21:45:00,
2013-06-21 17:55:00,73.9,53.5,30.21,WSW,246,7.0,7.0,49,0.00,,,0.00,Wunderground v.1.15,2013-06-21 21:55:00,
2013-06-21 18:00:00,74.1,54.3,30.21,SW,217,5.0,5.0,50,0.00,,,0.00,Wunderground v.1.15,2013-06-21 22:00:00,
2013-06-21 18:05:00,74.3,53.9,30.21,South,189,5.0,7.0,49,0.00,,,0.00,Wunderground v.1.15,2013-06-21 22:05:00,
2013-06-21 18:10:00,73.9,53.0,30.21,South,191,5.0,9.0,48,0.00,,,0.00,Wunderground v.1.15,2013-06-21 22:10:00,
2013-06-21 18:20:00,73.6,52.1,30.21,SSW,213,6.0,7.0,47,0.00,,,0.00,Wunderground v.1.15,2013-06-21 22:20:00,
2013-06-21 18:25:00,73.4,52.5,30.20,SSW,202,6.0,7.0,48,0.00,,,0.00,Wunderground v.1.15,2013-06-21 22:25:00,
2013-06-21 18:30:00,73.4,53.1,30.20,SSW,192,6.0,8.0,49,0.00,,,0.00,Wunderground v.1.15,2013-06-21 22:30:00,
2013-06-21 18:40:00,73.5,53.7,30.20,SSW,207,5.0,5.0,50,0.00,,,0.00,Wunderground v.1.15,2013-06-21 22:40:00,
2013-06-21 18:45:00,73.6,53.8,30.21,SSW,193,4.0,5.0,50,0.00,,,0.00,Wunderground v.1.15,2013-06-21 22:45:00,
2013-06-21 18:50:00,73.5,53.7,30.21,SW,217,4.0,5.0,50,0.00,,,0.00,Wunderground v.1.15,2013-06-21 22:50:00,
2013-06-21 19:00:00,73.2,54.0,30.21,SSW,195,5.0,5.0,51,0.00,,,0.00,Wunderground v.1.15,2013-06-21 23:00:00,
2013-06-21 19:05:00,73.0,53.8,30.21,SSW,200,4.0,6.0,51,0.00,,,0.00,Wunderground v.1.15,2013-06-21 23:05:00,
2013-06-21 19:10:00,73.0,54.3,30.21,SSW,210,4.0,4.0,52,0.00,,,0.00,Wunderground v.1.15,2013-06-21 23:10:00,
2013-06-21 19:15:00,73.0,54.3,30.21,SSW,200,4.0,4.0,52,0.00,,,0.00,Wunderground v.1.15,2013-06-21 23:15:00,
2013-06-21 19:20:00,72.7,54.6,30.21,SSW,204,4.0,4.0,53,0.00,,,0.00,Wunderground v.1.15,2013-06-21 23:20:00,
2013-06-21 19:25:00,72.5,55.4,30.22,SSW,208,4.0,4.0,55,0.00,,,0.00,Wunderground v.1.15,2013-06-21 23:25:00,
2013-06-21 19:35:00,71.7,56.6,30.22,SSW,198,5.0,6.0,59,0.00,,,0.00,Wunderground v.1.15,2013-06-21 23:35:00,
2013-06-21 19:40:00,71.2,57.1,30.22,SW,232,5.0,5.0,61,0.00,,,0.00,Wunderground v.1.15,2013-06-21 23:40:00,
2013-06-21 19:45:00,70.8,57.6,30.22,SW,227,6.0,7.0,63,0.00,,,0.00,Wunderground v.1.15,2013-06-21 23:45:00,
2013-06-21 19:50:00,70.6,58.3,30.22,SSW,209,6.0,6.0,65,0.00,,,0.00,Wunderground v.1.15,2013-06-21 23:50:00,
2013-06-21 19:55:00,70.3,58.4,30.22,SW,217,5.0,6.0,66,0.00,,,0.00,Wunderground v.1.15,2013-06-21 23:55:00,
2013-06-21 20:05:00,69.5,58.5,30.22,SSW,211,4.0,5.0,68,0.00,,,0.00,Wunderground v.1.15,2013-06-22 00:05:00,
2013-06-21 20:10:00,69.4,58.8,30.22,SSW,196,4.0,4.0,69,0.00,,,0.00,Wunderground v.1.15,2013-06-22 00:10:00,
2013-06-21 20:15:00,69.1,58.9,30.22,SSW,205,3.0,6.0,70,0.00,,,0.00,Wunderground v.1.15,2013-06-22 00:15:00,
2013-06-21 20:20:00,68.8,59.0,30.22,SSW,206,3.0,4.0,71,0.00,,,0.00,Wunderground v.1.15,2013-06-22 00:20:00,
2013-06-21 20:25:00,68.6,58.8,30.22,SSW,197,3.0,4.0,71,0.00,,,0.00,Wunderground v.1.15,2013-06-22 00:25:00,
2013-06-21 20:30:00,68.4,59.0,30.22,SSW,193,3.0,4.0,72,0.00,,,0.00,Wunderground v.1.15,2013-06-22 00:30:00,
2013-06-21 20:40:00,67.4,58.8,30.22,SSW,194,2.0,2.0,74,0.00,,,0.00,Wunderground v.1.15,2013-06-22 00:40:00,
2013-06-21 20:45:00,66.9,59.1,30.22,SSW,194,1.0,4.0,76,0.00,,,0.00,Wunderground v.1.15,2013-06-22 00:45:00,
2013-06-21 20:50:00,66.8,59.0,30.22,SSW,194,1.0,4.0,76,0.00,,,0.00,Wunderground v.1.15,2013-06-22 00:50:00,
2013-06-21 20:55:00,66.7,58.9,30.22,SSW,194,2.0,4.0,76,0.00,,,0.00,Wunderground v.1.15,2013-06-22 00:55:00,
2013-06-21 21:00:00,66.6,58.8,30.22,SSW,192,3.0,4.0,76,0.00,,,0.00,Wunderground v.1.15,2013-06-22 01:00:00,
2013-06-21 21:10:00,66.4,58.6,30.23,South,187,3.0,3.0,76,0.00,,,0.00,Wunderground v.1.15,2013-06-22 01:10:00,
2013-06-21 21:15:00,66.3,58.5,30.23,South,189,2.0,4.0,76,0.00,,,0.00,Wunderground v.1.15,2013-06-22 01:15:00,
2013-06-21 21:20:00,65.8,58.4,30.23,South,186,2.0,4.0,77,0.00,,,0.00,Wunderground v.1.15,2013-06-22 01:20:00,
2013-06-21 21:25:00,65.5,58.8,30.23,South,190,2.0,4.0,79,0.00,,,0.00,Wunderground v.1.15,2013-06-22 01:25:00,
2013-06-21 21:30:00,65.0,58.3,30.23,South,190,1.0,1.0,79,0.00,,,0.00,Wunderground v.1.15,2013-06-22 01:30:00,
2013-06-21 21:40:00,64.4,58.1,30.23,South,190,0.0,4.0,80,0.00,,,0.00,Wunderground v.1.15,2013-06-22 01:40:00,
2013-06-21 21:50:00,64.1,58.5,30.23,South,190,0.0,4.0,82,0.00,,,0.00,Wunderground v.1.15,2013-06-22 01:50:00,
2013-06-21 21:55:00,63.6,58.3,30.23,South,190,0.0,4.0,83,0.00,,,0.00,Wunderground v.1.15,2013-06-22 01:55:00,
2013-06-21 22:00:00,63.2,57.9,30.23,South,190,0.0,4.0,83,0.00,,,0.00,Wunderground v.1.15,2013-06-22 02:00:00,
2013-06-21 22:05:00,63.0,58.1,30.23,South,190,0.0,4.0,84,0.00,,,0.00,Wunderground v.1.15,2013-06-22 02:05:00,
2013-06-21 22:10:00,62.8,57.9,30.23,South,190,0.0,4.0,84,0.00,,,0.00,Wunderground v.1.15,2013-06-22 02:10:00,
2013-06-21 22:20:00,62.3,57.7,30.23,South,190,0.0,4.0,85,0.00,,,0.00,Wunderground v.1.15,2013-06-22 02:20:00,
2013-06-21 22:25:00,62.2,58.0,30.23,South,190,0.0,4.0,86,0.00,,,0.00,Wunderground v.1.15,2013-06-22 02:25:00,
2013-06-21 22:30:00,62.0,57.8,30.23,South,190,0.0,4.0,86,0.00,,,0.00,Wunderground v.1.15,2013-06-22 02:30:00,
2013-06-21 22:35:00,61.8,57.6,30.23,South,190,0.0,4.0,86,0.00,,,0.00,Wunderground v.1.15,2013-06-22 02:35:00,
2013-06-21 22:40:00,61.6,57.7,30.23,South,190,0.0,4.0,87,0.00,,,0.00,Wunderground v.1.15,2013-06-22 02:40:00,
2013-06-21 22:50:00,61.2,57.6,30.23,South,190,0.0,4.0,88,0.00,,,0.00,Wunderground v.1.15,2013-06-22 02:50:00,
2013-06-21 22:55:00,61.0,57.4,30.23,South,190,0.0,4.0,88,0.00,,,0.00,Wunderground v.1.15,2013-06-22 02:55:00,
2013-06-21 23:00:00,60.8,57.2,30.23,South,190,0.0,4.0,88,0.00,,,0.00,Wunderground v.1.15,2013-06-22 03:00:00,
2013-06-21 23:05:00,60.7,57.1,30.23,South,190,0.0,4.0,88,0.00,,,0.00,Wunderground v.1.15,2013-06-22 03:05:00,
2013-06-21 23:10:00,60.7,57.4,30.23,South,190,0.0,4.0,89,0.00,,,0.00,Wunderground v.1.15,2013-06-22 03:10:00,
2013-06-21 23:15:00,60.5,57.6,30.23,South,190,0.0,4.0,90,0.00,,,0.00,Wunderground v.1.15,2013-06-22 03:15:00,
2013-06-21 23:25:00,60.4,57.5,30.23,South,190,0.0,4.0,90,0.00,,,0.00,Wunderground v.1.15,2013-06-22 03:25:00,
2013-06-21 23:30:00,60.3,57.4,30.22,South,190,0.0,4.0,90,0.00,,,0.00,Wunderground v.1.15,2013-06-22 03:30:00,
2013-06-21 23:35:00,60.2,57.6,30.23,South,190,0.0,4.0,91,0.00,,,0.00,Wunderground v.1.15,2013-06-22 03:35:00,
2013-06-21 23:40:00,60.2,57.6,30.22,South,190,0.0,4.0,91,0.00,,,0.00,Wunderground v.1.15,2013-06-22 03:40:00,
2013-06-21 23:45:00,60.2,57.6,30.23,South,190,0.0,4.0,91,0.00,,,0.00,Wunderground v.1.15,2013-06-22 03:45:00,
2013-06-21 23:55:00,60.0,57.7,30.23,South,190,0.0,4.0,92,0.00,,,0.00,Wunderground v.1.15,2013-06-22 03:55:00,